Time,TemperatureF,DewpointF,PressureIn,WindDirection,WindDirectionDegrees,WindSpeedMPH,WindSpeedGustMPH,Humidity,HourlyPrecipIn,Conditions,Clouds,dailyrainin,SoftwareType,DateUTC
2013-01-04 00:00:00,26.2,16.9,30.48,West,270,2.0,2.0,67,0.00,,,0.00,meteohub,2013-01-04 05:00:00,
2013-01-04 00:02:00,26.2,16.9,30.48,West,270,2.0,2.0,67,0.00,,,0.00,meteohub,2013-01-04 05:02:00,
2013-01-04 00:03:00,26.2,16.9,30.48,West,270,2.0,2.0,67,0.00,,,0.00,meteohub,2013-01-04 05:03:00,
2013-01-04 00:08:00,26.6,17.2,30.47,West,270,0.0,2.0,67,0.00,,,0.00,meteohub,2013-01-04 05:08:00,
2013-01-04 00:13:00,26.6,17.2,30.47,NE,45,1.0,2.0,67,0.00,,,0.00,meteohub,2013-01-04 05:13:00,
2013-01-04 00:18:00,26.4,17.1,30.48,NE,45,0.0,2.0,67,0.00,,,0.00,meteohub,2013-01-04 05:18:00,
2013-01-04 00:23:00,26.4,17.1,30.48,East,90,2.0,2.0,67,0.00,,,0.00,meteohub,2013-01-04 05:23:00,
2013-01-04 00:28:00,26.2,16.9,30.47,East,90,1.0,2.0,67,0.00,,,0.00,meteohub,2013-01-04 05:28:00,
2013-01-04 00:33:00,26.1,16.9,30.47,East,90,0.0,2.0,67,0.00,,,0.00,meteohub,2013-01-04 05:33:00,
2013-01-04 00:39:00,26.1,16.9,30.47,East,90,0.0,2.0,67,0.00,,,0.00,meteohub,2013-01-04 05:39:00,
2013-01-04 00:44:00,26.4,17.1,30.46,NW,315,0.0,1.0,67,0.00,,,0.00,meteohub,2013-01-04 05:44:00,
2013-01-04 00:49:00,26.8,17.8,30.46,West,270,2.0,0.0,68,0.00,,,0.00,meteohub,2013-01-04 05:49:00,
2013-01-04 00:54:00,27.3,18.3,30.46,West,270,2.0,2.0,68,0.00,,,0.00,meteohub,2013-01-04 05:54:00,
2013-01-04 00:59:00,27.3,18.3,30.46,NE,45,3.0,3.0,68,0.00,,,0.00,meteohub,2013-01-04 05:59:00,
2013-01-04 01:04:00,27.3,18.3,30.46,NE,45,3.0,4.0,68,0.00,,,0.00,meteohub,2013-01-04 06:04:00,
2013-01-04 01:09:00,27.1,18.1,30.46,East,90,0.0,4.0,68,0.00,,,0.00,meteohub,2013-01-04 06:09:00,
2013-01-04 01:14:00,27.0,18.0,30.46,East,90,0.0,4.0,68,0.00,,,0.00,meteohub,2013-01-04 06:14:00,
2013-01-04 01:19:00,26.8,17.8,30.46,SSW,203,2.0,3.0,68,0.00,,,0.00,meteohub,2013-01-04 06:19:00,
2013-01-04 01:24:00,26.8,17.8,30.46,North,0,0.0,3.0,68,0.00,,,0.00,meteohub,2013-01-04 06:24:00,
2013-01-04 01:29:00,26.8,17.8,30.46,North,0,0.0,2.0,68,0.00,,,0.00,meteohub,2013-01-04 06:29:00,
2013-01-04 01:35:00,26.8,17.8,30.46,North,0,0.0,2.0,68,0.00,,,0.00,meteohub,2013-01-04 06:35:00,
2013-01-04 01:40:00,26.6,17.6,30.46,North,0,0.0,2.0,68,0.00,,,0.00,meteohub,2013-01-04 06:40:00,
2013-01-04 01:45:00,26.4,17.4,30.46,SE,135,0.0,2.0,68,0.00,,,0.00,meteohub,2013-01-04 06:45:00,
2013-01-04 01:50:00,26.2,17.2,30.46,SE,135,1.0,2.0,68,0.00,,,0.00,meteohub,2013-01-04 06:50:00,
2013-01-04 01:55:00,26.1,17.1,30.46,East,90,0.0,2.0,68,0.00,,,0.00,meteohub,2013-01-04 06:55:00,
2013-01-04 02:00:00,26.1,17.1,30.46,East,90,0.0,2.0,68,0.00,,,0.00,meteohub,2013-01-04 07:00:00,
2013-01-04 02:05:00,26.1,17.1,30.46,East,90,0.0,1.0,68,0.00,,,0.00,meteohub,2013-01-04 07:05:00,
2013-01-04 02:10:00,25.9,16.5,30.47,NW,315,0.0,0.0,67,0.00,,,0.00,meteohub,2013-01-04 07:10:00,
2013-01-04 02:15:00,25.9,16.5,30.46,NW,315,0.0,0.0,67,0.00,,,0.00,meteohub,2013-01-04 07:15:00,
2013-01-04 02:20:00,25.9,16.5,30.46,SE,135,0.0,0.0,67,0.00,,,0.00,meteohub,2013-01-04 07:20:00,
2013-01-04 02:25:00,25.7,16.3,30.46,SE,135,0.0,0.0,67,0.00,,,0.00,meteohub,2013-01-04 07:25:00,
2013-01-04 02:31:00,25.7,16.3,30.46,NW,315,0.0,0.0,67,0.00,,,0.00,meteohub,2013-01-04 07:31:00,
2013-01-04 02:36:00,25.7,16.3,30.45,NW,315,0.0,0.0,67,0.00,,,0.00,meteohub,2013-01-04 07:36:00,
2013-01-04 02:41:00,25.7,16.3,30.45,North,0,0.0,0.0,67,0.00,,,0.00,meteohub,2013-01-04 07:41:00,
2013-01-04 02:46:00,25.5,16.2,30.45,North,0,0.0,0.0,67,0.00,,,0.00,meteohub,2013-01-04 07:46:00,
2013-01-04 02:51:00,25.5,16.2,30.45,North,0,0.0,0.0,67,0.00,,,0.00,meteohub,2013-01-04 07:51:00,
2013-01-04 02:56:00,25.5,16.5,30.46,North,0,0.0,0.0,68,0.00,,,0.00,meteohub,2013-01-04 07:56:00,
2013-01-04 03:01:00,25.3,16.0,30.45,North,0,0.0,0.0,67,0.00,,,0.00,meteohub,2013-01-04 08:01:00,
2013-01-04 03:07:00,25.3,16.0,30.45,North,0,0.0,0.0,67,0.00,,,0.00,meteohub,2013-01-04 08:07:00,
2013-01-04 03:12:00,25.3,16.3,30.45,North,0,0.0,0.0,68,0.00,,,0.00,meteohub,2013-01-04 08:12:00,
2013-01-04 03:17:00,25.2,15.8,30.45,NW,315,2.0,0.0,67,0.00,,,0.00,meteohub,2013-01-04 08:17:00,
2013-01-04 03:22:00,25.2,16.2,30.46,NW,315,0.0,2.0,68,0.00,,,0.00,meteohub,2013-01-04 08:22:00,
2013-01-04 03:27:00,25.2,15.8,30.46,NW,315,0.0,2.0,67,0.00,,,0.00,meteohub,2013-01-04 08:27:00,
2013-01-04 03:32:00,25.0,15.6,30.46,NW,315,0.0,2.0,67,0.00,,,0.00,meteohub,2013-01-04 08:32:00,
2013-01-04 03:37:00,24.6,15.3,30.46,NW,315,0.0,0.0,67,0.00,,,0.00,meteohub,2013-01-04 08:37:00,
2013-01-04 03:42:00,24.8,15.8,30.46,NW,315,1.0,2.0,68,0.00,,,0.00,meteohub,2013-01-04 08:42:00,
2013-01-04 03:47:00,24.8,15.8,30.46,NW,315,0.0,2.0,68,0.00,,,0.00,meteohub,2013-01-04 08:47:00,
2013-01-04 03:52:00,24.8,15.8,30.47,NW,315,0.0,2.0,68,0.00,,,0.00,meteohub,2013-01-04 08:52:00,
2013-01-04 03:57:00,24.6,15.6,30.46,NW,315,2.0,2.0,68,0.00,,,0.00,meteohub,2013-01-04 08:57:00,
2013-01-04 04:02:00,24.6,15.3,30.46,NW,315,1.0,2.0,67,0.00,,,0.00,meteohub,2013-01-04 09:02:00,
2013-01-04 04:07:00,24.6,15.3,30.46,NW,315,1.0,2.0,67,0.00,,,0.00,meteohub,2013-01-04 09:07:00,
2013-01-04 04:12:00,24.4,15.1,30.47,NW,315,0.0,2.0,67,0.00,,,0.00,meteohub,2013-01-04 09:12:00,
2013-01-04 04:17:00,24.4,15.1,30.47,NW,315,0.0,1.0,67,0.00,,,0.00,meteohub,2013-01-04 09:17:00,
2013-01-04 04:22:00,24.6,15.3,30.47,NW,315,0.0,1.0,67,0.00,,,0.00,meteohub,2013-01-04 09:22:00,
2013-01-04 04:27:00,24.1,14.7,30.46,NW,315,0.0,0.0,67,0.00,,,0.00,meteohub,2013-01-04 09:27:00,
2013-01-04 04:32:00,24.1,14.7,30.47,SE,135,0.0,0.0,67,0.00,,,0.00,meteohub,2013-01-04 09:32:00,
2013-01-04 04:37:00,23.9,14.5,30.46,SE,135,0.0,0.0,67,0.00,,,0.00,meteohub,2013-01-04 09:37:00,
2013-01-04 04:42:00,23.9,14.5,30.47,West,270,2.0,0.0,67,0.00,,,0.00,meteohub,2013-01-04 09:42:00,
2013-01-04 04:47:00,24.1,14.7,30.46,West,270,0.0,2.0,67,0.00,,,0.00,meteohub,2013-01-04 09:47:00,
2013-01-04 04:52:00,24.1,14.7,30.46,NW,315,0.0,2.0,67,0.00,,,0.00,meteohub,2013-01-04 09:52:00,
2013-01-04 04:57:00,23.9,14.5,30.47,NW,315,0.0,2.0,67,0.00,,,0.00,meteohub,2013-01-04 09:57:00,
2013-01-04 05:02:00,23.9,14.5,30.48,NW,315,0.0,0.0,67,0.00,,,0.00,meteohub,2013-01-04 10:02:00,
2013-01-04 05:07:00,23.7,14.4,30.48,NW,315,0.0,0.0,67,0.00,,,0.00,meteohub,2013-01-04 10:07:00,
2013-01-04 05:12:00,23.5,14.4,30.48,NW,315,0.0,0.0,67,0.00,,,0.00,meteohub,2013-01-04 10:12:00,
2013-01-04 05:17:00,23.5,14.4,30.47,NW,315,0.0,0.0,67,0.00,,,0.00,meteohub,2013-01-04 10:17:00,
2013-01-04 05:23:00,23.5,14.4,30.47,NW,315,0.0,0.0,67,0.00,,,0.00,meteohub,2013-01-04 10:23:00,
2013-01-04 05:28:00,23.5,14.4,30.46,NW,315,0.0,0.0,67,0.00,,,0.00,meteohub,2013-01-04 10:28:00,
2013-01-04 05:33:00,23.5,14.4,30.47,NW,315,0.0,0.0,67,0.00,,,0.00,meteohub,2013-01-04 10:33:00,
2013-01-04 05:38:00,23.4,14.2,30.47,NW,315,0.0,0.0,67,0.00,,,0.00,meteohub,2013-01-04 10:38:00,
2013-01-04 05:43:00,23.2,14.0,30.48,NW,315,0.0,0.0,67,0.00,,,0.00,meteohub,2013-01-04 10:43:00,
2013-01-04 05:48:00,22.8,13.6,30.48,NW,315,0.0,0.0,67,0.00,,,0.00,meteohub,2013-01-04 10:48:00,
2013-01-04 05:53:00,22.8,13.6,30.48,NW,315,0.0,0.0,67,0.00,,,0.00,meteohub,2013-01-04 10:53:00,
2013-01-04 05:58:00,22.8,13.6,30.48,NW,315,0.0,0.0,67,0.00,,,0.00,meteohub,2013-01-04 10:58:00,
2013-01-04 06:03:00,22.8,13.6,30.48,NW,315,0.0,0.0,67,0.00,,,0.00,meteohub,2013-01-04 11:03:00,
2013-01-04 06:08:00,23.2,14.0,30.48,NW,315,0.0,0.0,67,0.00,,,0.00,meteohub,2013-01-04 11:08:00,
2013-01-04 06:13:00,23.0,13.8,30.48,NW,315,0.0,0.0,67,0.00,,,0.00,meteohub,2013-01-04 11:13:00,
2013-01-04 06:18:00,23.0,13.8,30.48,NW,315,0.0,0.0,67,0.00,,,0.00,meteohub,2013-01-04 11:18:00,
2013-01-04 06:23:00,23.0,13.8,30.48,NW,315,0.0,0.0,67,0.00,,,0.00,meteohub,2013-01-04 11:23:00,
2013-01-04 06:28:00,23.0,13.8,30.48,NW,315,0.0,0.0,67,0.00,,,0.00,meteohub,2013-01-04 11:28:00,
2013-01-04 06:33:00,22.8,13.6,30.48,NW,315,0.0,0.0,67,0.00,,,0.00,meteohub,2013-01-04 11:33:00,
2013-01-04 06:38:00,22.6,13.5,30.49,NW,315,0.0,0.0,67,0.00,,,0.00,meteohub,2013-01-04 11:38:00,
2013-01-04 06:43:00,22.6,13.5,30.49,NW,315,0.0,0.0,67,0.00,,,0.00,meteohub,2013-01-04 11:43:00,
2013-01-04 06:48:00,22.3,13.1,30.49,NW,315,0.0,0.0,67,0.00,,,0.00,meteohub,2013-01-04 11:48:00,
2013-01-04 06:54:00,22.1,12.7,30.49,NW,315,0.0,0.0,66,0.00,,,0.00,meteohub,2013-01-04 11:54:00,
2013-01-04 06:59:00,22.1,12.9,30.49,NW,315,0.0,1.0,67,0.00,,,0.00,meteohub,2013-01-04 11:59:00,
2013-01-04 07:04:00,22.1,12.9,30.50,NW,315,0.0,1.0,67,0.00,,,0.00,meteohub,2013-01-04 12:04:00,
2013-01-04 07:09:00,22.3,13.1,30.50,NW,315,0.0,1.0,67,0.00,,,0.00,meteohub,2013-01-04 12:09:00,
2013-01-04 07:14:00,22.3,13.1,30.50,NW,315,0.0,0.0,67,0.00,,,0.00,meteohub,2013-01-04 12:14:00,
2013-01-04 07:19:00,22.3,13.1,30.50,NW,315,0.0,0.0,67,0.00,,,0.00,meteohub,2013-01-04 12:19:00,
2013-01-04 07:24:00,22.1,12.9,30.50,NW,315,0.0,0.0,67,0.00,,,0.00,meteohub,2013-01-04 12:24:00,
2013-01-04 07:29:00,21.9,12.9,30.51,NW,315,0.0,0.0,67,0.00,,,0.00,meteohub,2013-01-04 12:29:00,
2013-01-04 07:34:00,21.9,12.9,30.50,NW,315,0.0,0.0,67,0.00,,,0.00,meteohub,2013-01-04 12:34:00,
2013-01-04 07:39:00,21.9,12.9,30.51,NW,315,0.0,0.0,67,0.00,,,0.00,meteohub,2013-01-04 12:39:00,
2013-01-04 07:44:00,21.9,12.9,30.51,NW,315,0.0,0.0,67,0.00,,,0.00,meteohub,2013-01-04 12:44:00,
2013-01-04 07:50:00,21.7,12.7,30.51,NW,315,0.0,0.0,67,0.00,,,0.00,meteohub,2013-01-04 12:50:00,
2013-01-04 07:55:00,21.7,12.7,30.51,NW,315,0.0,0.0,67,0.00,,,0.00,meteohub,2013-01-04 12:55:00,
2013-01-04 08:00:00,21.9,12.9,30.51,NW,315,0.0,0.0,67,0.00,,,0.00,meteohub,2013-01-04 13:00:00,
2013-01-04 08:05:00,21.9,12.9,30.52,NW,315,0.0,0.0,67,0.00,,,0.00,meteohub,2013-01-04 13:05:00,
2013-01-04 08:10:00,21.9,12.9,30.52,NW,315,0.0,0.0,67,0.00,,,0.00,meteohub,2013-01-04 13:10:00,
2013-01-04 08:15:00,22.1,12.9,30.51,NW,315,0.0,0.0,67,0.00,,,0.00,meteohub,2013-01-04 13:15:00,
2013-01-04 08:20:00,22.3,13.1,30.52,NW,315,0.0,0.0,67,0.00,,,0.00,meteohub,2013-01-04 13:20:00,
2013-01-04 08:25:00,22.5,13.3,30.52,NW,315,0.0,0.0,67,0.00,,,0.00,meteohub,2013-01-04 13:25:00,
2013-01-04 08:30:00,23.0,13.8,30.52,NW,315,0.0,0.0,67,0.00,,,0.00,meteohub,2013-01-04 13:30:00,
2013-01-04 08:35:00,24.1,15.1,30.52,SE,135,2.0,2.0,68,0.00,,,0.00,meteohub,2013-01-04 13:35:00,
2013-01-04 08:40:00,25.5,16.7,30.51,SE,135,0.0,2.0,69,0.00,,,0.00,meteohub,2013-01-04 13:40:00,
2013-01-04 08:45:00,27.9,19.6,30.50,SE,135,0.0,2.0,70,0.00,,,0.00,meteohub,2013-01-04 13:45:00,
2013-01-04 08:51:00,30.4,22.3,30.51,SE,135,0.0,2.0,71,0.00,,,0.00,meteohub,2013-01-04 13:51:00,
2013-01-04 08:56:00,32.7,24.8,30.50,SE,135,0.0,0.0,72,0.00,,,0.00,meteohub,2013-01-04 13:56:00,
2013-01-04 09:01:00,33.6,24.8,30.50,SE,135,2.0,0.0,69,0.00,,,0.00,meteohub,2013-01-04 14:01:00,
2013-01-04 09:06:00,33.6,24.8,30.49,SE,135,2.0,2.0,69,0.00,,,0.00,meteohub,2013-01-04 14:06:00,
2013-01-04 09:11:00,35.1,21.6,30.49,SE,135,1.0,2.0,57,0.00,,,0.00,meteohub,2013-01-04 14:11:00,
2013-01-04 09:16:00,36.0,21.2,30.49,East,90,2.0,2.0,54,0.00,,,0.00,meteohub,2013-01-04 14:16:00,
2013-01-04 09:21:00,36.9,19.6,30.49,SE,135,2.0,2.0,49,0.00,,,0.00,meteohub,2013-01-04 14:21:00,
2013-01-04 09:26:00,38.5,19.4,30.48,SE,135,2.0,2.0,45,0.00,,,0.00,meteohub,2013-01-04 14:26:00,
2013-01-04 09:31:00,39.2,16.7,30.48,SE,135,1.0,3.0,39,0.00,,,0.00,meteohub,2013-01-04 14:31:00,
2013-01-04 09:36:00,39.9,19.0,30.48,North,0,0.0,3.0,42,0.00,,,0.00,meteohub,2013-01-04 14:36:00,
2013-01-04 09:41:00,41.0,15.8,30.48,West,270,2.0,3.0,35,0.00,,,0.00,meteohub,2013-01-04 14:41:00,
2013-01-04 09:46:00,40.6,12.9,30.48,East,90,2.0,3.0,31,0.00,,,0.00,meteohub,2013-01-04 14:46:00,
2013-01-04 09:51:00,41.4,12.7,30.48,SE,135,2.0,3.0,30,0.00,,,0.00,meteohub,2013-01-04 14:51:00,
2013-01-04 09:56:00,41.9,12.4,30.49,SE,135,2.0,2.0,29,0.00,,,0.00,meteohub,2013-01-04 14:56:00,
2013-01-04 10:01:00,42.3,12.0,30.48,East,90,2.0,2.0,28,0.00,,,0.00,meteohub,2013-01-04 15:01:00,
2013-01-04 10:06:00,42.3,12.0,30.48,East,90,2.0,2.0,28,0.00,,,0.00,meteohub,2013-01-04 15:06:00,
2013-01-04 10:12:00,42.8,10.8,30.49,East,90,2.0,2.0,26,0.00,,,0.00,meteohub,2013-01-04 15:12:00,
2013-01-04 10:17:00,43.3,12.0,30.48,East,90,2.0,3.0,27,0.00,,,0.00,meteohub,2013-01-04 15:17:00,
2013-01-04 10:22:00,44.1,12.7,30.49,East,90,2.0,3.0,27,0.00,,,0.00,meteohub,2013-01-04 15:22:00,
2013-01-04 10:27:00,45.0,7.9,30.49,SE,135,3.0,3.0,21,0.00,,,0.00,meteohub,2013-01-04 15:27:00,
2013-01-04 10:32:00,45.9,8.6,30.49,East,90,2.0,3.0,21,0.00,,,0.00,meteohub,2013-01-04 15:32:00,
2013-01-04 10:37:00,47.3,-2.0,30.48,East,90,4.0,4.0,12,0.00,,,0.00,meteohub,2013-01-04 15:37:00,
2013-01-04 10:42:00,47.5,-0.2,30.48,East,90,2.0,4.0,13,0.00,,,0.00,meteohub,2013-01-04 15:42:00,
2013-01-04 10:47:00,48.7,2.3,30.48,East,90,2.0,4.0,14,0.00,,,0.00,meteohub,2013-01-04 15:47:00,
2013-01-04 10:52:00,50.4,50.4,30.47,West,270,3.0,4.0,0,0.00,,,0.00,meteohub,2013-01-04 15:52:00,
2013-01-04 10:57:00,50.9,50.9,30.47,SW,225,4.0,4.0,0,0.00,,,0.00,meteohub,2013-01-04 15:57:00,
2013-01-04 11:02:00,51.1,51.1,30.47,West,270,2.0,4.0,0,0.00,,,0.00,meteohub,2013-01-04 16:02:00,
2013-01-04 11:07:00,51.6,51.6,30.46,West,270,4.0,4.0,0,0.00,,,0.00,meteohub,2013-01-04 16:07:00,
2013-01-04 11:12:00,51.8,51.8,30.46,West,270,3.0,4.0,0,0.00,,,0.00,meteohub,2013-01-04 16:12:00,
2013-01-04 11:17:00,52.7,52.7,30.45,West,270,3.0,4.0,0,0.00,,,0.00,meteohub,2013-01-04 16:17:00,
2013-01-04 11:22:00,53.1,53.1,30.46,SW,225,3.0,4.0,0,0.00,,,0.00,meteohub,2013-01-04 16:22:00,
2013-01-04 11:27:00,52.0,52.0,30.45,West,270,4.0,4.0,0,0.00,,,0.00,meteohub,2013-01-04 16:27:00,
2013-01-04 11:32:00,52.0,52.0,30.45,NE,45,4.0,4.0,0,0.00,,,0.00,meteohub,2013-01-04 16:32:00,
2013-01-04 11:37:00,52.3,52.3,30.45,West,270,3.0,4.0,0,0.00,,,0.00,meteohub,2013-01-04 16:37:00,
2013-01-04 11:43:00,52.3,52.3,30.45,SW,225,4.0,4.0,0,0.00,,,0.00,meteohub,2013-01-04 16:43:00,
2013-01-04 11:48:00,52.5,52.5,30.45,West,270,2.0,4.0,0,0.00,,,0.00,meteohub,2013-01-04 16:48:00,
2013-01-04 11:53:00,54.0,54.0,30.45,West,270,6.0,6.0,0,0.00,,,0.00,meteohub,2013-01-04 16:53:00,
2013-01-04 11:58:00,53.4,53.4,30.44,South,180,4.0,4.0,0,0.00,,,0.00,meteohub,2013-01-04 16:58:00,
2013-01-04 12:03:00,54.1,54.1,30.44,SE,135,3.0,7.0,0,0.00,,,0.00,meteohub,2013-01-04 17:03:00,
2013-01-04 12:08:00,54.1,54.1,30.44,West,270,5.0,7.0,0,0.00,,,0.00,meteohub,2013-01-04 17:08:00,
2013-01-04 12:13:00,53.4,53.4,30.44,WNW,293,7.0,7.0,0,0.00,,,0.00,meteohub,2013-01-04 17:13:00,
2013-01-04 12:18:00,54.1,54.1,30.43,SE,135,3.0,7.0,0,0.00,,,0.00,meteohub,2013-01-04 17:18:00,
2013-01-04 12:23:00,54.7,54.7,30.43,West,270,3.0,7.0,0,0.00,,,0.00,meteohub,2013-01-04 17:23:00,
2013-01-04 12:28:00,55.4,55.4,30.43,NE,45,2.0,7.0,0,0.00,,,0.00,meteohub,2013-01-04 17:28:00,
2013-01-04 12:33:00,55.8,55.8,30.42,West,270,8.0,8.0,0,0.00,,,0.00,meteohub,2013-01-04 17:33:00,
2013-01-04 12:38:00,54.0,54.0,30.43,West,270,4.0,5.0,0,0.00,,,0.00,meteohub,2013-01-04 17:38:00,
2013-01-04 12:43:00,54.7,54.7,30.42,South,180,4.0,8.0,0,0.00,,,0.00,meteohub,2013-01-04 17:43:00,
2013-01-04 12:49:00,55.9,55.9,30.42,NW,315,4.0,8.0,0,0.00,,,0.00,meteohub,2013-01-04 17:49:00,
2013-01-04 12:54:00,56.1,56.1,30.42,West,270,3.0,6.0,0,0.00,,,0.00,meteohub,2013-01-04 17:54:00,
2013-01-04 12:59:00,57.0,57.0,30.41,NW,315,4.0,6.0,0,0.00,,,0.00,meteohub,2013-01-04 17:59:00,
2013-01-04 13:04:00,56.8,56.8,30.41,NNW,338,4.0,5.0,0,0.00,,,0.00,meteohub,2013-01-04 18:04:00,
2013-01-04 13:09:00,55.6,55.6,30.41,NW,315,6.0,6.0,0,0.00,,,0.00,meteohub,2013-01-04 18:09:00,
2013-01-04 13:14:00,55.4,55.4,30.40,West,270,7.0,12.0,0,0.00,,,0.00,meteohub,2013-01-04 18:14:00,
2013-01-04 13:19:00,56.1,56.1,30.40,West,270,4.0,12.0,0,0.00,,,0.00,meteohub,2013-01-04 18:19:00,
2013-01-04 13:24:00,55.6,55.6,30.40,SE,135,5.0,12.0,0,0.00,,,0.00,meteohub,2013-01-04 18:24:00,
2013-01-04 13:29:00,54.9,54.9,30.40,SW,225,5.0,11.0,0,0.00,,,0.00,meteohub,2013-01-04 18:29:00,
2013-01-04 13:34:00,54.3,54.3,30.40,West,270,7.0,11.0,0,0.00,,,0.00,meteohub,2013-01-04 18:34:00,
2013-01-04 13:39:00,53.1,53.1,30.40,WSW,248,8.0,11.0,0,0.00,,,0.00,meteohub,2013-01-04 18:39:00,
2013-01-04 13:44:00,53.4,53.4,30.40,NW,315,4.0,15.0,0,0.00,,,0.00,meteohub,2013-01-04 18:44:00,
2013-01-04 13:49:00,53.4,53.4,30.39,North,0,5.0,15.0,0,0.00,,,0.00,meteohub,2013-01-04 18:49:00,
2013-01-04 13:55:00,52.3,52.3,30.39,WSW,248,9.0,15.0,0,0.00,,,0.00,meteohub,2013-01-04 18:55:00,
2013-01-04 14:00:00,51.6,51.6,30.39,NW,315,8.0,9.0,0,0.00,,,0.00,meteohub,2013-01-04 19:00:00,
2013-01-04 14:05:00,51.3,51.3,30.39,NE,45,5.0,9.0,0,0.00,,,0.00,meteohub,2013-01-04 19:05:00,
2013-01-04 14:10:00,51.3,51.3,30.39,SSW,203,4.0,11.0,0,0.00,,,0.00,meteohub,2013-01-04 19:10:00,
2013-01-04 14:15:00,51.4,51.4,30.39,SW,225,8.0,9.0,0,0.00,,,0.00,meteohub,2013-01-04 19:15:00,
2013-01-04 14:20:00,51.4,51.4,30.39,North,0,7.0,8.0,0,0.00,,,0.00,meteohub,2013-01-04 19:20:00,
2013-01-04 14:25:00,51.6,51.6,30.40,West,270,5.0,8.0,0,0.00,,,0.00,meteohub,2013-01-04 19:25:00,
2013-01-04 14:30:00,51.4,51.4,30.39,West,270,8.0,10.0,0,0.00,,,0.00,meteohub,2013-01-04 19:30:00,
2013-01-04 14:35:00,51.1,51.1,30.39,SE,135,3.0,12.0,0,0.00,,,0.00,meteohub,2013-01-04 19:35:00,
2013-01-04 14:40:00,50.9,50.9,30.39,WSW,248,8.0,12.0,0,0.00,,,0.00,meteohub,2013-01-04 19:40:00,
2013-01-04 14:45:00,50.7,50.7,30.39,WSW,248,7.0,8.0,0,0.00,,,0.00,meteohub,2013-01-04 19:45:00,
2013-01-04 14:50:00,50.4,50.4,30.40,West,270,10.0,10.0,0,0.00,,,0.00,meteohub,2013-01-04 19:50:00,
2013-01-04 14:55:00,50.2,50.2,30.39,SW,225,8.0,10.0,0,0.00,,,0.00,meteohub,2013-01-04 19:55:00,
2013-01-04 15:00:00,50.4,50.4,30.39,NW,315,3.0,10.0,0,0.00,,,0.00,meteohub,2013-01-04 20:00:00,
2013-01-04 15:05:00,50.4,50.4,30.39,West,270,7.0,10.0,0,0.00,,,0.00,meteohub,2013-01-04 20:05:00,
2013-01-04 15:11:00,50.2,50.2,30.39,South,180,8.0,8.0,0,0.00,,,0.00,meteohub,2013-01-04 20:11:00,
2013-01-04 15:16:00,49.8,49.8,30.40,South,180,4.0,10.0,0,0.00,,,0.00,meteohub,2013-01-04 20:16:00,
2013-01-04 15:21:00,49.8,49.8,30.40,West,270,4.0,10.0,0,0.00,,,0.00,meteohub,2013-01-04 20:21:00,
2013-01-04 15:26:00,49.8,49.8,30.40,SSW,203,6.0,10.0,0,0.00,,,0.00,meteohub,2013-01-04 20:26:00,
2013-01-04 15:31:00,49.8,49.8,30.40,North,0,2.0,8.0,0,0.00,,,0.00,meteohub,2013-01-04 20:31:00,
2013-01-04 15:36:00,49.6,49.6,30.41,NW,315,7.0,8.0,0,0.00,,,0.00,meteohub,2013-01-04 20:36:00,
2013-01-04 15:41:00,49.5,49.5,30.40,West,270,4.0,12.0,0,0.00,,,0.00,meteohub,2013-01-04 20:41:00,
2013-01-04 15:46:00,49.5,49.5,30.40,NW,315,2.0,12.0,0,0.00,,,0.00,meteohub,2013-01-04 20:46:00,
2013-01-04 15:51:00,49.5,49.5,30.41,SSW,203,7.0,9.0,0,0.00,,,0.00,meteohub,2013-01-04 20:51:00,
2013-01-04 15:56:00,49.3,49.3,30.40,South,180,5.0,10.0,0,0.00,,,0.00,meteohub,2013-01-04 20:56:00,
2013-01-04 16:01:00,49.1,49.1,30.40,NW,315,4.0,10.0,0,0.00,,,0.00,meteohub,2013-01-04 21:01:00,
2013-01-04 16:06:00,48.9,48.9,30.40,SW,225,1.0,10.0,0,0.00,,,0.00,meteohub,2013-01-04 21:06:00,
2013-01-04 16:11:00,48.9,48.9,30.41,West,270,3.0,11.0,0,0.00,,,0.00,meteohub,2013-01-04 21:11:00,
2013-01-04 16:17:00,48.9,48.9,30.41,SW,225,7.0,11.0,0,0.00,,,0.00,meteohub,2013-01-04 21:17:00,
2013-01-04 16:22:00,48.4,48.4,30.42,NW,315,13.0,13.0,0,0.00,,,0.00,meteohub,2013-01-04 21:22:00,
2013-01-04 16:27:00,47.7,47.7,30.42,West,270,8.0,13.0,0,0.00,,,0.00,meteohub,2013-01-04 21:27:00,
2013-01-04 16:32:00,47.3,47.3,30.42,East,90,4.0,13.0,0,0.00,,,0.00,meteohub,2013-01-04 21:32:00,
2013-01-04 16:37:00,46.9,46.9,30.42,SW,225,6.0,13.0,0,0.00,,,0.00,meteohub,2013-01-04 21:37:00,
2013-01-04 16:42:00,46.6,46.6,30.42,WSW,248,8.0,11.0,0,0.00,,,0.00,meteohub,2013-01-04 21:42:00,
2013-01-04 16:47:00,46.4,46.4,30.43,WNW,293,5.0,11.0,0,0.00,,,0.00,meteohub,2013-01-04 21:47:00,
2013-01-04 16:52:00,46.4,46.4,30.43,NW,315,5.0,11.0,0,0.00,,,0.00,meteohub,2013-01-04 21:52:00,
2013-01-04 16:57:00,46.4,46.4,30.43,NE,45,5.0,11.0,0,0.00,,,0.00,meteohub,2013-01-04 21:57:00,
2013-01-04 17:02:00,46.0,46.0,30.43,West,270,3.0,11.0,0,0.00,,,0.00,meteohub,2013-01-04 22:02:00,
2013-01-04 17:07:00,45.3,45.3,30.43,North,0,3.0,7.0,0,0.00,,,0.00,meteohub,2013-01-04 22:07:00,
2013-01-04 17:12:00,44.8,44.8,30.44,West,270,4.0,5.0,0,0.00,,,0.00,meteohub,2013-01-04 22:12:00,
2013-01-04 17:18:00,44.6,44.6,30.44,SW,225,3.0,6.0,0,0.00,,,0.00,meteohub,2013-01-04 22:18:00,
2013-01-04 17:23:00,43.9,43.9,30.44,West,270,3.0,6.0,0,0.00,,,0.00,meteohub,2013-01-04 22:23:00,
2013-01-04 17:28:00,43.3,43.3,30.44,SW,225,3.0,5.0,0,0.00,,,0.00,meteohub,2013-01-04 22:28:00,
2013-01-04 17:33:00,42.8,42.8,30.44,South,180,4.0,4.0,0,0.00,,,0.00,meteohub,2013-01-04 22:33:00,
2013-01-04 17:38:00,42.3,42.3,30.45,West,270,4.0,4.0,0,0.00,,,0.00,meteohub,2013-01-04 22:38:00,
2013-01-04 17:43:00,41.9,41.9,30.45,West,270,4.0,7.0,0,0.00,,,0.00,meteohub,2013-01-04 22:43:00,
2013-01-04 17:48:00,41.4,41.4,30.45,North,0,1.0,7.0,0,0.00,,,0.00,meteohub,2013-01-04 22:48:00,
2013-01-04 17:53:00,40.8,40.8,30.45,WSW,248,1.0,7.0,0,0.00,,,0.00,meteohub,2013-01-04 22:53:00,
2013-01-04 17:58:00,40.3,40.3,30.46,NW,315,3.0,4.0,0,0.00,,,0.00,meteohub,2013-01-04 22:58:00,
2013-01-04 18:03:00,40.1,40.1,30.46,NW,315,2.0,4.0,0,0.00,,,0.00,meteohub,2013-01-04 23:03:00,
2013-01-04 18:08:00,39.2,39.2,30.46,NW,315,2.0,3.0,0,0.00,,,0.00,meteohub,2013-01-04 23:08:00,
2013-01-04 18:13:00,38.5,-12.6,30.47,West,270,3.0,3.0,10,0.00,,,0.00,meteohub,2013-01-04 23:13:00,
2013-01-04 18:18:00,37.9,-11.2,30.47,West,270,2.0,3.0,11,0.00,,,0.00,meteohub,2013-01-04 23:18:00,
2013-01-04 18:23:00,37.4,-6.9,30.47,West,270,2.0,3.0,14,0.00,,,0.00,meteohub,2013-01-04 23:23:00,
2013-01-04 18:28:00,36.9,-4.5,30.48,West,270,2.0,3.0,16,0.00,,,0.00,meteohub,2013-01-04 23:28:00,
2013-01-04 18:33:00,36.5,-2.4,30.48,West,270,2.0,2.0,18,0.00,,,0.00,meteohub,2013-01-04 23:33:00,
2013-01-04 18:38:00,35.8,-3.1,30.49,West,270,0.0,2.0,18,0.00,,,0.00,meteohub,2013-01-04 23:38:00,
2013-01-04 18:43:00,35.4,-2.2,30.49,West,270,0.0,2.0,19,0.00,,,0.00,meteohub,2013-01-04 23:43:00,
2013-01-04 18:48:00,35.1,-0.4,30.49,West,270,0.0,2.0,21,0.00,,,0.00,meteohub,2013-01-04 23:48:00,
2013-01-04 18:54:00,34.7,1.2,30.49,North,0,2.0,2.0,23,0.00,,,0.00,meteohub,2013-01-04 23:54:00,
2013-01-04 18:59:00,34.3,3.4,30.50,NW,315,2.0,2.0,26,0.00,,,0.00,meteohub,2013-01-04 23:59:00,
2013-01-04 19:04:00,34.3,3.4,30.50,NW,315,0.0,2.0,26,0.00,,,0.00,meteohub,2013-01-05 00:04:00,
2013-01-04 19:09:00,33.4,6.4,30.50,NNW,338,2.0,2.0,31,0.00,,,0.00,meteohub,2013-01-05 00:09:00,
2013-01-04 19:14:00,33.1,7.5,30.50,NW,315,2.0,2.0,33,0.00,,,0.00,meteohub,2013-01-05 00:14:00,
2013-01-04 19:19:00,32.5,7.0,30.51,North,0,2.0,2.0,33,0.00,,,0.00,meteohub,2013-01-05 00:19:00,
2013-01-04 19:24:00,32.4,6.8,30.51,North,0,0.0,2.0,33,0.00,,,0.00,meteohub,2013-01-05 00:24:00,
2013-01-04 19:29:00,32.0,7.2,30.51,North,0,0.0,2.0,34,0.00,,,0.00,meteohub,2013-01-05 00:29:00,
2013-01-04 19:34:00,31.5,9.1,30.51,NW,315,2.0,2.0,38,0.00,,,0.00,meteohub,2013-01-05 00:34:00,
2013-01-04 19:39:00,31.3,10.0,30.51,NW,315,2.0,2.0,40,0.00,,,0.00,meteohub,2013-01-05 00:39:00,
2013-01-04 19:44:00,30.9,9.1,30.52,North,0,2.0,2.0,39,0.00,,,0.00,meteohub,2013-01-05 00:44:00,
2013-01-04 19:49:00,30.7,8.4,30.51,ENE,68,1.0,2.0,38,0.00,,,0.00,meteohub,2013-01-05 00:49:00,
2013-01-04 19:54:00,30.4,8.8,30.52,West,270,0.0,2.0,39,0.00,,,0.00,meteohub,2013-01-05 00:54:00,
2013-01-04 19:59:00,30.2,10.8,30.52,NW,315,2.0,2.0,43,0.00,,,0.00,meteohub,2013-01-05 00:59:00,
2013-01-04 20:05:00,30.2,10.8,30.52,NW,315,2.0,2.0,43,0.00,,,0.00,meteohub,2013-01-05 01:05:00,
2013-01-04 20:10:00,29.8,10.4,30.52,North,0,2.0,2.0,43,0.00,,,0.00,meteohub,2013-01-05 01:10:00,
2013-01-04 20:15:00,29.7,10.2,30.52,North,0,0.0,2.0,43,0.00,,,0.00,meteohub,2013-01-05 01:15:00,
2013-01-04 20:20:00,29.3,10.9,30.52,NW,315,2.0,2.0,45,0.00,,,0.00,meteohub,2013-01-05 01:20:00,
2013-01-04 20:25:00,29.1,11.3,30.51,NNW,338,1.0,2.0,46,0.00,,,0.00,meteohub,2013-01-05 01:25:00,
2013-01-04 20:30:00,28.9,10.6,30.52,NNW,338,0.0,2.0,45,0.00,,,0.00,meteohub,2013-01-05 01:30:00,
2013-01-04 20:35:00,28.6,9.9,30.52,NNW,338,0.0,2.0,44,0.00,,,0.00,meteohub,2013-01-05 01:35:00,
2013-01-04 20:40:00,28.2,10.0,30.52,NNW,338,0.0,1.0,45,0.00,,,0.00,meteohub,2013-01-05 01:40:00,
2013-01-04 20:45:00,28.2,10.9,30.52,NNW,338,0.0,2.0,47,0.00,,,0.00,meteohub,2013-01-05 01:45:00,
2013-01-04 20:50:00,28.2,10.9,30.52,NNW,338,0.0,2.0,47,0.00,,,0.00,meteohub,2013-01-05 01:50:00,
2013-01-04 20:55:00,28.0,10.2,30.52,NNW,338,0.0,2.0,46,0.00,,,0.00,meteohub,2013-01-05 01:55:00,
2013-01-04 21:00:00,27.9,10.0,30.52,NNW,338,0.0,2.0,46,0.00,,,0.00,meteohub,2013-01-05 02:00:00,
2013-01-04 21:05:00,27.9,10.0,30.53,NNW,338,0.0,2.0,46,0.00,,,0.00,meteohub,2013-01-05 02:05:00,
2013-01-04 21:10:00,27.5,10.2,30.52,NNW,338,0.0,0.0,47,0.00,,,0.00,meteohub,2013-01-05 02:10:00,
2013-01-04 21:15:00,27.3,10.0,30.53,NNW,338,0.0,0.0,47,0.00,,,0.00,meteohub,2013-01-05 02:15:00,
2013-01-04 21:21:00,27.1,9.9,30.53,NW,315,2.0,2.0,47,0.00,,,0.00,meteohub,2013-01-05 02:21:00,
2013-01-04 21:26:00,27.1,11.3,30.52,NW,315,2.0,2.0,50,0.00,,,0.00,meteohub,2013-01-05 02:26:00,
2013-01-04 21:31:00,27.1,11.3,30.52,NW,315,2.0,2.0,50,0.00,,,0.00,meteohub,2013-01-05 02:31:00,
2013-01-04 21:36:00,27.0,10.8,30.53,SE,135,0.0,2.0,49,0.00,,,0.00,meteohub,2013-01-05 02:36:00,
2013-01-04 21:41:00,26.8,10.9,30.52,NW,315,0.0,2.0,50,0.00,,,0.00,meteohub,2013-01-05 02:41:00,
2013-01-04 21:46:00,26.8,11.5,30.52,NW,315,2.0,2.0,51,0.00,,,0.00,meteohub,2013-01-05 02:46:00,
2013-01-04 21:51:00,26.8,10.9,30.53,NE,45,0.0,2.0,50,0.00,,,0.00,meteohub,2013-01-05 02:51:00,
2013-01-04 21:56:00,26.6,10.8,30.53,North,0,0.0,2.0,50,0.00,,,0.00,meteohub,2013-01-05 02:56:00,
2013-01-04 22:01:00,26.6,10.8,30.52,NW,315,2.0,2.0,50,0.00,,,0.00,meteohub,2013-01-05 03:01:00,
2013-01-04 22:07:00,26.6,10.8,30.52,NW,315,2.0,2.0,50,0.00,,,0.00,meteohub,2013-01-05 03:07:00,
2013-01-04 22:12:00,26.2,10.9,30.52,NW,315,0.0,2.0,51,0.00,,,0.00,meteohub,2013-01-05 03:12:00,
2013-01-04 22:17:00,26.2,11.3,30.52,NW,315,2.0,2.0,52,0.00,,,0.00,meteohub,2013-01-05 03:17:00,
2013-01-04 22:22:00,26.2,11.3,30.52,NW,315,0.0,2.0,52,0.00,,,0.00,meteohub,2013-01-05 03:22:00,
2013-01-04 22:27:00,26.1,11.1,30.52,NW,315,1.0,2.0,52,0.00,,,0.00,meteohub,2013-01-05 03:27:00,
2013-01-04 22:32:00,26.1,11.1,30.52,NW,315,1.0,2.0,52,0.00,,,0.00,meteohub,2013-01-05 03:32:00,
2013-01-04 22:37:00,25.7,10.2,30.52,NW,315,0.0,1.0,51,0.00,,,0.00,meteohub,2013-01-05 03:37:00,
2013-01-04 22:42:00,25.5,10.6,30.52,WNW,293,3.0,3.0,52,0.00,,,0.00,meteohub,2013-01-05 03:42:00,
2013-01-04 22:47:00,25.7,11.5,30.52,NNW,338,2.0,3.0,54,0.00,,,0.00,meteohub,2013-01-05 03:47:00,
2013-01-04 22:52:00,25.7,11.5,30.51,North,0,0.0,3.0,54,0.00,,,0.00,meteohub,2013-01-05 03:52:00,
2013-01-04 22:57:00,25.7,11.5,30.52,West,270,2.0,3.0,54,0.00,,,0.00,meteohub,2013-01-05 03:57:00,
2013-01-04 23:02:00,25.5,11.3,30.52,West,270,0.0,2.0,54,0.00,,,0.00,meteohub,2013-01-05 04:02:00,
2013-01-04 23:07:00,25.5,11.3,30.52,West,270,0.0,2.0,54,0.00,,,0.00,meteohub,2013-01-05 04:07:00,
2013-01-04 23:12:00,25.3,11.3,30.51,East,90,2.0,2.0,54,0.00,,,0.00,meteohub,2013-01-05 04:12:00,
2013-01-04 23:17:00,25.3,11.7,30.52,East,90,0.0,2.0,55,0.00,,,0.00,meteohub,2013-01-05 04:17:00,
2013-01-04 23:22:00,25.3,11.7,30.52,NW,315,0.0,2.0,55,0.00,,,0.00,meteohub,2013-01-05 04:22:00,
2013-01-04 23:27:00,25.3,12.0,30.52,NW,315,0.0,2.0,56,0.00,,,0.00,meteohub,2013-01-05 04:27:00,
2013-01-04 23:32:00,25.3,11.7,30.53,NW,315,2.0,0.0,55,0.00,,,0.00,meteohub,2013-01-05 04:32:00,
2013-01-04 23:37:00,25.2,11.8,30.52,NW,315,2.0,2.0,56,0.00,,,0.00,meteohub,2013-01-05 04:37:00,
2013-01-04 23:42:00,25.2,12.2,30.53,NW,315,0.0,2.0,57,0.00,,,0.00,meteohub,2013-01-05 04:42:00,
2013-01-04 23:47:00,25.0,11.7,30.52,NW,315,0.0,2.0,56,0.00,,,0.00,meteohub,2013-01-05 04:47:00,
2013-01-04 23:52:00,24.8,11.5,30.52,NW,315,0.0,2.0,56,0.00,,,0.00,meteohub,2013-01-05 04:52:00,
2013-01-04 23:57:00,24.8,11.5,30.52,NW,315,0.0,2.0,56,0.00,,,0.00,meteohub,2013-01-05 04:57:00,